Nearby METAR Reports

 

KFNL - Ft Collins/Lovel, Colorado, USA
Distance from station: E 23mi, 37km
Updated: Fri, 10-Jul-2020 8:56am MDT
Clear
Clear
 Wind from NNW
Wind: NNW 6 mph , 9 km/h
Temperature: 72°F , 22°C
Dew Point: 61°F , 16°C
Humidity: 69%
Barometer: 30.19 inHg , 1022.4 hPa
Clouds: Clear
Visibility: 10 miles , 16 km
2020/07/10 14:56 KFNL 101456Z 34005KT 10SM CLR 22/16 A3019 RMK AO2 SLP159 T02170161 51007
KLMO - Longmont/Vbrand, Colorado, USA
Distance from station: SE 26mi, 41km
Updated: Fri, 10-Jul-2020 9:15am MDT
Clear
Clear
 Wind from calm
Wind: Calm
Temperature: 77°F , 25°C
Dew Point: 55°F , 13°C
Humidity: 47%
Barometer: 30.20 inHg , 1022.7 hPa
Clouds: Clear
Visibility: 7 miles , 11 km
2020/07/10 15:15 KLMO 101515Z AUTO 00000KT 7SM CLR 25/13 A3020 RMK AO2 T02530128
 
KBDU - Boulder Muni, Colorado, USA
Distance from station: SSE 32mi, 52km
Updated: Fri, 10-Jul-2020 9:29am MDT
Clear
Clear
 Wind from calm
Wind: Calm
Temperature: 73°F , 23°C
Dew Point: 52°F , 11°C
Humidity: 47%
Barometer: 30.20 inHg , 1022.7 hPa
Clouds: Clear
Visibility: 10 miles , 16 km
2020/07/10 15:29 KBDU 101529Z AUTO 00000KT 10SM CLR 23/11 A3020 RMK AO2
KEIK - Erie Muni, Colorado, USA
Distance from station: SE 38mi, 61km
Updated: Fri, 10-Jul-2020 9:35am MDT
Clear
Clear
 Wind from calm
Wind: Calm
Temperature: 75°F , 24°C
Dew Point: 55°F , 13°C
Humidity: 50%
Barometer: 30.24 inHg , 1024 hPa
Clouds: Clear
Visibility: 10 miles , 16 km
2020/07/10 15:35 KEIK 101535Z AUTO 00000KT 10SM CLR 24/13 A3024 RMK AO2 T02410134
 
KBJC - Broomfield/Jeffc, Colorado, USA
Distance from station: SSE 44mi, 70km
Updated: Fri, 10-Jul-2020 7:48am MDT
NOT Current
Clear
Clear
 Wind from varies
Wind: varies 5 mph , 7 km/h
Temperature: 68°F , 20°C
Dew Point: 55°F , 13°C
Humidity: 64%
Barometer: 30.23 inHg , 1023.7 hPa
Clouds: Clear
Visibility: 10 miles , 16 km
2020/07/10 13:48 KBJC 101348Z VRB04KT 10SM SKC 20/13 A3023
KGXY - Greeley/Weld, Colorado, USA
Distance from station: E 44mi, 71km
Updated: Fri, 10-Jul-2020 8:56am MDT
Overcast
Overcast
 Wind from NW
Wind: NW 3 mph , 6 km/h
Temperature: 73°F , 23°C
Dew Point: 64°F , 18°C
Humidity: 74%
Barometer: 30.17 inHg , 1021.7 hPa
Clouds: Overcast
Visibility: 10 miles , 16 km
Cloud details: Overcast 300 ft
2020/07/10 14:56 KGXY 101456Z 31003KT 10SM OVC003 23/18 A3017 RMK AO2 SLP168 T02330178 50006
 
K33V - Walden, Colorado, USA
Distance from station: WNW 48mi, 77km
Updated: Fri, 10-Jul-2020 9:15am MDT
Clear
Clear
 Wind from calm
Wind: Calm
Temperature: 63°F , 17°C
Dew Point: 27°F , -3°C
Humidity: 25%
Barometer: 30.43 inHg , 1030.5 hPa
Clouds: Clear
Visibility: 10 miles , 16 km
2020/07/10 15:15 K33V 101515Z AUTO 00000KT 10SM CLR 17/M03 A3043 RMK AO1
K0CO - Berthoud Pass, Colorado, USA
Distance from station: SSW 49mi, 79km
Updated: Fri, 10-Jul-2020 9:23am MDT
Clear
Clear
 Wind from W
Wind: W 35 mph , 56 km/h, Gust: 44 mph , 70 km/h
Temperature: 52°F , 11°C
Dew Point: 36°F , 2°C
Humidity: 54%
Barometer: 30.74 inHg , 1041 hPa
Clouds: Clear
Visibility: 10 miles , 16 km
2020/07/10 15:23 K0CO 101523Z AUTO 28030G38KT 10SM CLR 11/02 A3074 RMK AO2 TSNO PWINO